NCAR-RAP Real-Time Weather Data

Output produced by METARs form (01 December 2020  17:19 UTC)
found at http://weather.rap.ucar.edu/surface/
 
KRST 011654Z 17004KT 10SM CLR M03/M07 A3012 RMK AO2 SLP221 T10281067
KRST 011554Z 15006KT 10SM CLR M05/M08 A3011 RMK AO2 SLP219 T10501083
KRST 011454Z 15004KT 10SM CLR M07/M09 A3009 RMK AO2 SLP214 T10721094 51010
KRST 011354Z 16004KT 10SM CLR M11/M13 A3008 RMK AO2 SLP213 T11061128
KRST 011254Z 12003KT 10SM CLR M11/M13 A3007 RMK AO2 SLP209 T11111133
KRST 011154Z 00000KT 10SM CLR M11/M13 A3006 RMK AO2 SLP205 T11061128 11072 21106 56004
KRST 011054Z 00000KT 10SM CLR M09/M12 A3006 RMK AO2 SLP204 T10891117
KRST 010954Z AUTO 00000KT 10SM CLR M09/M12 A3007 RMK AO2 SLP204 T10941117
KRST 010854Z AUTO 00000KT 10SM CLR M10/M12 A3007 RMK AO2 SLP206 T11001122 55000
KRST 010754Z AUTO 00000KT 10SM CLR M09/M12 A3007 RMK AO2 SLP205 T10891117
KRST 010654Z AUTO 00000KT 10SM CLR M08/M12 A3007 RMK AO2 SLP204 T10831117
KRST 010554Z AUTO 00000KT 10SM CLR M07/M11 A3008 RMK AO2 SLP206 T10721111 11061 21083 410171089 56004
KRST 010454Z AUTO 00000KT 10SM CLR M06/M11 A3008 RMK AO2 SLP206 T10611106
KRST 010354Z 00000KT 10SM CLR M07/M11 A3008 RMK AO2 SLP209 T10721111